Time;durP1;ratioP1;P1;durP2;ratioP2;P2;SDS_P1;SDS_P2;PMS_P1;PMS_P2;Temp;Humidity;BMP_temperature;BMP_pressure;BME280_temperature;BME280_humidity;BME280_pressure;Samples;Min_cycle;Max_cycle;Signal;HPM_P1;HPM_P2
2021/11/24 00:02:05;;;;;;;13.73;8.15;;;;;;;5.58;82.33;102425.72;5007606;28;20081;-79
2021/11/24 00:04:33;;;;;;;17.20;9.10;;;;;;;5.59;82.31;102425.41;5015512;28;20123;-79
2021/11/24 00:07:00;;;;;;;14.20;8.20;;;;;;;5.60;82.44;102426.25;5016693;28;20037;-80
2021/11/24 00:09:26;;;;;;;15.85;9.07;;;;;;;5.63;82.14;102423.78;5016965;28;20041;-79
2021/11/24 00:11:53;;;;;;;15.85;8.63;;;;;;;5.64;82.32;102419.94;5024044;28;20075;-79
2021/11/24 00:14:20;;;;;;;15.02;8.15;;;;;;;5.67;82.27;102413.06;5002524;28;20064;-79
2021/11/24 00:16:47;;;;;;;14.50;8.80;;;;;;;5.70;82.16;102409.78;5017482;28;20101;-79
2021/11/24 00:19:14;;;;;;;9.90;7.18;;;;;;;5.69;82.21;102410.91;5024723;28;20037;-79
2021/11/24 00:21:41;;;;;;;16.67;9.55;;;;;;;5.70;82.12;102404.28;5019344;28;20046;-79
2021/11/24 00:24:07;;;;;;;12.98;7.72;;;;;;;5.69;82.03;102399.91;5023269;28;20054;-79
2021/11/24 00:26:34;;;;;;;12.13;7.95;;;;;;;5.70;82.09;102390.56;5019252;28;20115;-79
2021/11/24 00:29:01;;;;;;;13.55;8.82;;;;;;;5.71;82.18;102392.22;5024674;28;20065;-79
2021/11/24 00:31:28;;;;;;;18.00;10.10;;;;;;;5.73;82.00;102395.50;5021735;28;20037;-79
2021/11/24 00:33:55;;;;;;;11.63;7.90;;;;;;;5.73;82.07;102385.34;5017901;28;20046;-79
2021/11/24 00:36:22;;;;;;;11.18;7.88;;;;;;;5.75;82.08;102383.13;5019198;28;20045;-79
2021/11/24 00:38:49;;;;;;;16.38;9.30;;;;;;;5.71;81.76;102376.56;5002136;28;20053;-79
2021/11/24 00:41:16;;;;;;;14.88;9.00;;;;;;;5.67;81.35;102369.94;5026078;28;20119;-79
2021/11/24 00:43:43;;;;;;;14.90;8.18;;;;;;;5.63;81.59;102379.84;5018146;28;20046;-79
2021/11/24 00:46:10;;;;;;;11.57;7.43;;;;;;;5.58;81.32;102362.53;5021049;28;20065;-79
2021/11/24 00:48:37;;;;;;;13.30;9.73;;;;;;;5.62;81.24;102371.84;5022310;28;20479;-79
2021/11/24 00:51:04;;;;;;;11.38;7.30;;;;;;;5.56;81.45;102362.78;5013407;28;20080;-79
2021/11/24 00:53:31;;;;;;;11.82;6.95;;;;;;;5.53;81.37;102361.41;5019155;28;20125;-79
2021/11/24 00:55:57;;;;;;;13.20;8.30;;;;;;;5.64;81.32;102353.19;5012510;28;20436;-79
2021/11/24 00:58:24;;;;;;;9.10;6.55;;;;;;;5.58;81.09;102344.13;5018939;28;20139;-79
2021/11/24 01:00:51;;;;;;;12.13;7.32;;;;;;;5.56;81.10;102346.28;5016446;28;20029;-79
2021/11/24 01:03:18;;;;;;;11.82;7.93;;;;;;;5.54;81.02;102343.81;5017756;28;20564;-79
2021/11/24 01:05:46;;;;;;;9.80;5.68;;;;;;;5.51;81.19;102346.28;5019899;28;20038;-79
2021/11/24 01:08:15;;;;;;;10.25;7.38;;;;;;;5.48;81.03;102336.66;5016823;28;20037;-79
2021/11/24 01:10:43;;;;;;;10.02;6.45;;;;;;;5.46;80.67;102336.13;5020830;28;20095;-79
2021/11/24 01:13:12;;;;;;;13.60;7.93;;;;;;;5.41;80.75;102327.88;5018758;28;20076;-78
2021/11/24 01:15:39;;;;;;;11.73;7.70;;;;;;;5.47;80.49;102331.47;5013163;28;20469;-79
2021/11/24 01:18:06;;;;;;;11.32;6.38;;;;;;;5.43;80.36;102322.94;5001684;28;20049;-79
2021/11/24 01:20:33;;;;;;;12.82;6.70;;;;;;;5.41;80.69;102321.56;5019059;28;20103;-79
2021/11/24 01:23:00;;;;;;;9.55;6.15;;;;;;;5.34;80.72;102310.84;5016899;28;20133;-79
2021/11/24 01:25:29;;;;;;;6.95;5.60;;;;;;;5.28;80.58;102311.94;5013487;28;20045;-79
2021/11/24 01:27:58;;;;;;;;;;;;;;;5.23;80.43;102306.44;5016615;28;20076;-79
2021/11/24 01:30:26;;;;;;;9.55;4.35;;;;;;;5.19;80.54;102304.50;5015279;28;20013;-79
2021/11/24 01:32:53;;;;;;;7.38;4.88;;;;;;;5.12;80.78;102296.50;5020753;28;20083;-78
2021/11/24 01:35:20;;;;;;;7.35;5.07;;;;;;;5.08;80.58;102284.44;5017722;28;20065;-79
2021/11/24 01:37:47;;;;;;;7.90;4.72;;;;;;;5.05;80.24;102287.72;5013286;28;20087;-79
2021/11/24 01:40:13;;;;;;;;;;;;;;;5.01;80.64;102283.84;5001766;28;20089;-79
2021/11/24 01:42:41;;;;;;;9.25;5.35;;;;;;;5.00;80.47;102287.72;5013627;28;19920;-79
2021/11/24 01:45:09;;;;;;;;;;;;;;;4.95;80.38;102273.16;5015369;28;20371;-79
2021/11/24 01:47:36;;;;;;;;;;;;;;;4.91;80.23;102270.13;5022366;28;19960;-79
2021/11/24 01:50:04;;;;;;;;;;;;;;;4.86;80.38;102264.63;5005726;28;19921;-79
2021/11/24 01:52:32;;;;;;;5.55;3.90;;;;;;;4.85;80.39;102265.69;5014020;28;20276;-79
2021/11/24 01:55:00;;;;;;;9.63;5.13;;;;;;;4.91;80.50;102253.66;5020874;28;20432;-79
2021/11/24 01:57:28;;;;;;;7.30;5.32;;;;;;;5.02;80.56;102258.06;5016834;28;20464;-79
2021/11/24 01:59:56;;;;;;;7.00;4.47;;;;;;;5.09;79.91;102253.13;5020106;28;20409;-79
2021/11/24 02:02:24;;;;;;;9.02;3.92;;;;;;;5.00;80.21;102246.53;5020070;28;20057;-79
2021/11/24 02:04:52;;;;;;;4.80;3.47;;;;;;;4.96;80.00;102239.94;5025606;28;20048;-79
2021/11/24 02:07:20;;;;;;;6.05;3.83;;;;;;;4.92;80.06;102231.41;5018044;28;20435;-79
2021/11/24 02:09:47;;;;;;;6.90;4.03;;;;;;;4.96;79.44;102225.38;5016738;28;20433;-79
2021/11/24 02:12:15;;;;;;;7.57;3.75;;;;;;;5.04;79.36;102222.94;5019890;28;20405;-79
2021/11/24 02:14:43;;;;;;;5.73;3.43;;;;;;;5.12;79.11;102225.16;5019776;28;20943;-79
2021/11/24 02:17:13;;;;;;;5.95;3.92;;;;;;;5.15;78.60;102219.13;5016660;28;20448;-79
2021/11/24 02:19:40;;;;;;;5.68;4.00;;;;;;;5.18;78.35;102218.56;5017199;28;20504;-79
2021/11/24 02:22:07;;;;;;;7.67;3.43;;;;;;;5.20;78.06;102213.63;5020392;28;20433;-79
2021/11/24 02:24:36;;;;;;;7.55;3.88;;;;;;;5.21;78.41;102208.97;5015467;28;20413;-79
2021/11/24 02:27:05;;;;;;;7.65;4.13;;;;;;;5.23;77.69;102193.03;5019572;28;20496;-79
2021/11/24 02:29:32;;;;;;;6.47;2.83;;;;;;;5.05;78.12;102185.34;5021705;28;20113;-79
2021/11/24 02:32:02;;;;;;;4.40;3.08;;;;;;;4.92;78.80;102187.50;5013472;28;20058;-79
2021/11/24 02:34:29;;;;;;;;;;;;;;;4.79;79.05;102176.25;5017139;28;20129;-79
2021/11/24 02:36:57;;;;;;;;;;;;;;;4.70;79.29;102173.22;5018944;28;19960;-79
2021/11/24 02:39:24;;;;;;;;;;;;;;;4.61;79.21;102176.75;5022839;28;19949;-78
2021/11/24 02:41:51;;;;;;;;;;;;;;;4.53;79.20;102172.63;5018623;28;19965;-79
2021/11/24 02:44:18;;;;;;;;;;;;;;;4.46;79.53;102171.22;5005287;28;20305;-79
2021/11/24 02:46:46;;;;;;;;;;;;;;;4.43;79.84;102169.00;5018431;28;19921;-79
2021/11/24 02:49:12;;;;;;;;;;;;;;;4.40;79.48;102155.84;5019948;28;19960;-79
2021/11/24 02:51:40;;;;;;;;;;;;;;;4.32;79.70;102163.50;5013132;28;19964;-79
2021/11/24 02:54:07;;;;;;;;;;;;;;;4.26;79.73;102163.78;5022013;28;20075;-79
2021/11/24 02:56:33;;;;;;;;;;;;;;;4.24;79.91;102153.06;5018672;28;19920;-79
2021/11/24 02:59:00;;;;;;;;;;;;;;;4.24;79.63;102152.22;5015730;28;20024;-79
2021/11/24 03:01:27;;;;;;;;;;;;;;;4.21;79.66;102148.09;5012151;28;19943;-79
2021/11/24 03:03:54;;;;;;;;;;;;;;;4.19;79.83;102144.81;5022443;28;19926;-79
2021/11/24 03:06:20;;;;;;;;;;;;;;;4.17;79.51;102147.00;5009296;28;19972;-79
2021/11/24 03:08:47;;;;;;;;;;;;;;;4.15;79.66;102134.66;5021137;28;19921;-79
2021/11/24 03:11:14;;;;;;;;;;;;;;;4.10;79.44;102140.13;5020209;28;19952;-79
2021/11/24 03:13:40;;;;;;;;;;;;;;;4.04;79.30;102128.31;5022820;28;19971;-79
2021/11/24 03:16:07;;;;;;;;;;;;;;;4.01;79.51;102125.28;5012831;28;19971;-79
2021/11/24 03:18:34;;;;;;;;;;;;;;;4.00;79.93;102124.47;5024395;28;20020;-79
2021/11/24 03:21:00;;;;;;;;;;;;;;;3.97;79.79;102129.66;5019573;28;19960;-79
2021/11/24 03:23:27;;;;;;;;;;;;;;;3.92;79.54;102124.97;5024227;28;19921;-79
2021/11/24 03:25:53;;;;;;;;;;;;;;;3.88;79.61;102121.13;5015451;28;19929;-78
2021/11/24 03:28:20;;;;;;;;;;;;;;;3.90;79.90;102113.47;5023821;28;20365;-79
2021/11/24 03:30:47;;;;;;;;;;;;;;;3.87;79.89;102108.50;5019265;28;19965;-79
2021/11/24 03:33:13;;;;;;;;;;;;;;;3.80;79.99;102109.84;5023288;28;19917;-79
2021/11/24 03:35:40;;;;;;;;;;;;;;;3.80;80.25;102107.94;5017866;28;19937;-79
2021/11/24 03:38:08;;;;;;;;;;;;;;;3.84;80.43;102095.34;5023471;28;19921;-79
2021/11/24 03:40:35;;;;;;;;;;;;;;;3.89;80.26;102100.84;5015717;28;20020;-79
2021/11/24 03:43:02;;;;;;;;;;;;;;;3.94;80.54;102103.63;5022638;28;19975;-79
2021/11/24 03:45:32;;;;;;;;;;;;;;;3.95;80.35;102094.31;5020162;28;19932;-79
2021/11/24 03:47:59;;;;;;;;;;;;;;;3.99;80.45;102084.47;5026245;28;19917;-79
2021/11/24 03:50:26;;;;;;;;;;;;;;;4.03;80.56;102091.03;5019548;28;19979;-79
2021/11/24 03:52:53;;;;;;;;;;;;;;;4.07;80.81;102081.22;5018241;28;19917;-79
2021/11/24 03:55:20;;;;;;;;;;;;;;;4.09;80.77;102078.19;5016993;28;19944;-79
2021/11/24 03:57:47;;;;;;;3.63;2.90;;;;;;;4.14;80.17;102070.81;5022005;28;20008;-79
2021/11/24 04:00:18;;;;;;;5.05;3.60;;;;;;;4.21;80.43;102065.88;5013051;28;20111;-79
2021/11/24 04:02:45;;;;;;;6.00;3.05;;;;;;;4.26;80.49;102065.88;5013167;28;20046;-79
2021/11/24 04:05:12;;;;;;;5.00;3.97;;;;;;;4.34;80.71;102055.50;5022294;28;20053;-79
2021/11/24 04:07:39;;;;;;;5.43;2.97;;;;;;;4.40;80.61;102051.66;5021925;28;20416;-79
2021/11/24 04:10:08;;;;;;;3.92;3.50;;;;;;;4.45;81.01;102043.47;5019018;28;20033;-79
2021/11/24 04:12:37;;;;;;;4.22;2.63;;;;;;;4.52;80.96;102039.34;5023794;28;20033;-79
2021/11/24 04:15:08;;;;;;;4.82;3.50;;;;;;;4.58;81.09;102031.94;5018370;28;20453;-79
2021/11/24 04:17:35;;;;;;;4.20;3.42;;;;;;;4.64;80.73;102026.16;5021843;28;20061;-79
2021/11/24 04:20:04;;;;;;;6.50;4.38;;;;;;;4.63;80.58;102021.78;5021077;28;20065;-79
2021/11/24 04:22:31;;;;;;;5.50;4.22;;;;;;;4.61;80.47;102014.91;5018607;28;20045;-79
2021/11/24 04:24:57;;;;;;;5.38;3.53;;;;;;;4.60;80.58;102010.56;5018581;28;20125;-79
2021/11/24 04:27:24;;;;;;;3.97;3.58;;;;;;;4.58;80.40;101999.03;5019079;28;20209;-79
2021/11/24 04:29:51;;;;;;;6.03;4.07;;;;;;;4.54;80.52;101995.19;5018524;28;20129;-79
2021/11/24 04:32:19;;;;;;;4.43;3.28;;;;;;;4.51;80.38;101987.50;5014234;28;20543;-78
2021/11/24 04:34:46;;;;;;;;;;;;;;;4.47;80.85;101986.41;5019731;28;20058;-79
2021/11/24 04:37:13;;;;;;;5.20;4.00;;;;;;;4.45;80.40;101977.66;5015466;28;19960;-79
2021/11/24 04:39:40;;;;;;;3.90;3.47;;;;;;;4.44;80.26;101970.50;5018216;28;20077;-79
2021/11/24 04:42:07;;;;;;;5.47;3.55;;;;;;;4.43;80.70;101974.34;5014523;28;20049;-79
2021/11/24 04:44:35;;;;;;;5.55;4.47;;;;;;;4.43;80.31;101971.59;5021530;28;20048;-79
2021/11/24 04:47:02;;;;;;;7.53;3.95;;;;;;;4.42;80.60;101967.22;5018575;28;20045;-79
2021/11/24 04:49:29;;;;;;;5.82;4.72;;;;;;;4.41;81.07;101960.91;5018443;28;20034;-80
2021/11/24 04:51:56;;;;;;;8.80;5.10;;;;;;;4.40;81.11;101963.91;5018588;28;20068;-79
2021/11/24 04:54:23;;;;;;;8.95;4.88;;;;;;;4.41;80.91;101955.44;5020166;28;20033;-79
2021/11/24 04:56:50;;;;;;;5.40;4.55;;;;;;;4.43;81.25;101946.91;5021943;28;20041;-79
2021/11/24 04:59:17;;;;;;;5.03;4.20;;;;;;;4.45;80.96;101942.00;5022690;28;20037;-79
2021/11/24 05:01:44;;;;;;;7.07;4.93;;;;;;;4.45;81.22;101939.25;5015950;28;20049;-79
2021/11/24 05:04:11;;;;;;;8.45;5.80;;;;;;;4.42;81.08;101937.06;5018625;28;20044;-79
2021/11/24 05:06:38;;;;;;;6.45;4.57;;;;;;;4.40;80.91;101933.75;5013212;28;20042;-79
2021/11/24 05:09:06;;;;;;;7.72;5.47;;;;;;;4.36;81.42;101946.38;5030868;28;20393;-79
2021/11/24 05:11:36;;;;;;;9.88;5.10;;;;;;;4.36;81.28;101947.22;5021985;28;20041;-79
2021/11/24 05:14:04;;;;;;;7.32;5.60;;;;;;;4.35;81.19;101955.69;5020522;28;20095;-79
2021/11/24 05:16:33;;;;;;;7.72;5.30;;;;;;;4.34;80.96;101951.31;5031448;28;20065;-79
2021/11/24 05:19:00;;;;;;;5.25;4.43;;;;;;;4.29;81.38;101928.28;5021338;28;20156;-79
2021/11/24 05:21:38;;;;;;;10.60;5.18;;;;;;;4.28;81.13;101939.53;5020237;28;20044;-79
2021/11/24 05:24:05;;;;;;;6.03;4.75;;;;;;;4.25;81.15;101918.16;5001281;28;20445;-79
2021/11/24 05:26:34;;;;;;;6.20;5.35;;;;;;;4.22;81.03;101924.19;5017180;28;20073;-80
2021/11/24 05:29:02;;;;;;;7.10;5.15;;;;;;;4.20;81.41;101910.75;5018512;28;20485;-79
2021/11/24 05:31:29;;;;;;;6.93;5.15;;;;;;;4.20;81.21;101909.94;5015167;28;20064;-79
2021/11/24 05:33:56;;;;;;;6.38;4.93;;;;;;;4.17;81.13;101905.00;5020630;28;20044;-79
2021/11/24 05:36:22;;;;;;;6.68;5.10;;;;;;;4.15;81.06;101897.06;5003125;28;20088;-79
2021/11/24 05:38:49;;;;;;;5.22;4.60;;;;;;;4.11;81.18;101890.47;5017120;28;20117;-79
2021/11/24 05:41:17;;;;;;;9.35;6.57;;;;;;;4.14;81.37;101889.94;5011743;28;20073;-79
2021/11/24 05:43:45;;;;;;;6.93;5.43;;;;;;;4.16;81.50;101882.25;5017834;28;20121;-79
2021/11/24 05:46:28;;;;;;;8.63;5.70;;;;;;;4.15;81.46;101872.41;5014752;28;20041;-79
2021/11/24 05:48:55;;;;;;;8.07;5.57;;;;;;;4.19;81.63;101869.91;5015882;28;20040;-79
2021/11/24 05:51:22;;;;;;;7.60;4.75;;;;;;;4.22;81.78;101875.66;5017588;28;20033;-79
2021/11/24 05:53:49;;;;;;;7.97;4.88;;;;;;;4.27;81.87;101877.56;5022447;28;20096;-79
2021/11/24 05:56:16;;;;;;;4.10;3.60;;;;;;;4.30;81.70;101855.94;5020018;28;20425;-79
2021/11/24 05:58:42;;;;;;;8.30;5.38;;;;;;;4.36;81.90;101854.00;5013721;28;20045;-79
2021/11/24 06:01:09;;;;;;;6.00;4.40;;;;;;;4.41;81.96;101847.69;5016937;28;20115;-79
2021/11/24 06:03:36;;;;;;;6.63;4.55;;;;;;;4.47;82.22;101841.09;5020258;28;20056;-79
2021/11/24 06:06:03;;;;;;;6.13;5.10;;;;;;;4.52;82.19;101852.03;5018947;28;20064;-79
2021/11/24 06:08:30;;;;;;;8.80;4.20;;;;;;;4.59;82.40;101839.69;5018804;28;20045;-79
2021/11/24 06:10:57;;;;;;;8.52;5.53;;;;;;;4.65;82.50;101832.25;5014167;28;20096;-79
2021/11/24 06:13:24;;;;;;;5.50;4.03;;;;;;;4.70;82.27;101837.72;5015405;28;20041;-79
2021/11/24 06:15:50;;;;;;;7.35;3.75;;;;;;;4.71;82.48;101834.69;5011272;28;20081;-79
2021/11/24 06:18:19;;;;;;;4.28;3.25;;;;;;;4.71;82.57;101829.22;5015103;28;20084;-79
2021/11/24 06:20:45;;;;;;;5.20;3.42;;;;;;;4.72;82.87;101821.81;5014542;28;20205;-79
2021/11/24 06:23:12;;;;;;;9.43;5.15;;;;;;;4.75;82.56;101815.75;5021276;28;20758;-80
2021/11/24 06:25:39;;;;;;;5.32;3.05;;;;;;;4.77;nan;101816.28;5010689;28;20050;-79
2021/11/24 06:28:07;;;;;;;7.65;3.38;;;;;;;4.80;82.75;101807.50;5017923;28;20038;-80
2021/11/24 06:30:34;;;;;;;6.75;3.80;;;;;;;4.82;82.65;101819.00;4994980;28;20474;-79
2021/11/24 06:33:01;;;;;;;5.22;3.35;;;;;;;4.81;82.62;101811.91;5020638;28;20050;-79
2021/11/24 06:35:27;;;;;;;7.47;3.42;;;;;;;4.76;82.52;101796.28;5000752;28;20070;-80
2021/11/24 06:37:54;;;;;;;11.75;3.38;;;;;;;4.74;82.51;101805.88;5019331;28;20073;-80
2021/11/24 06:40:22;;;;;;;7.40;3.15;;;;;;;4.70;82.70;101791.09;5019042;28;20053;-79
2021/11/24 06:42:49;;;;;;;4.97;3.45;;;;;;;4.68;82.27;101779.59;5018137;28;20533;-79
2021/11/24 06:45:16;;;;;;;6.28;3.67;;;;;;;4.65;82.69;101778.25;5016444;28;20091;-80
2021/11/24 06:47:43;;;;;;;4.40;3.58;;;;;;;4.63;82.68;101782.34;5021482;28;20594;-79
2021/11/24 06:50:12;;;;;;;10.40;4.43;;;;;;;4.62;82.75;101778.78;5020865;28;20042;-79
2021/11/24 06:52:39;;;;;;;5.63;3.58;;;;;;;4.60;82.67;101777.44;5024022;28;20351;-80
2021/11/24 06:55:07;;;;;;;5.53;3.45;;;;;;;4.58;82.84;101768.66;5022959;28;20040;-79
2021/11/24 06:57:34;;;;;;;5.80;3.10;;;;;;;4.57;82.93;101772.50;5024872;28;20070;-79
2021/11/24 07:00:05;;;;;;;2.97;2.75;;;;;;;4.57;83.06;101767.84;5021223;28;21255;-80
2021/11/24 07:02:31;;;;;;;6.72;3.70;;;;;;;4.62;82.91;101770.56;5020650;28;20046;-79
2021/11/24 07:04:58;;;;;;;6.85;3.80;;;;;;;4.67;83.24;101769.72;5017544;28;20045;-79
2021/11/24 07:07:25;;;;;;;4.95;3.05;;;;;;;4.74;83.71;101762.81;5025562;28;20034;-79
2021/11/24 07:09:52;;;;;;;5.75;2.85;;;;;;;4.83;83.74;101760.31;5019694;28;20435;-79
2021/11/24 07:12:23;;;;;;;9.88;2.95;;;;;;;4.90;84.09;101744.34;5021292;28;20291;-79
2021/11/24 07:14:52;;;;;;;2.70;2.13;;;;;;;4.95;84.21;101740.78;5022637;28;20037;-79
2021/11/24 07:17:19;;;;;;;4.07;2.10;;;;;;;5.00;84.30;101752.56;5020153;28;20037;-79
2021/11/24 07:19:45;;;;;;;4.63;2.22;;;;;;;5.04;84.06;101748.13;5024878;28;20068;-79
2021/11/24 07:22:12;;;;;;;7.60;2.97;;;;;;;5.10;84.18;101743.41;5019316;28;20049;-79
2021/11/24 07:24:40;;;;;;;8.15;2.53;;;;;;;5.15;84.65;101741.47;5024409;28;20059;-80
2021/11/24 07:27:07;;;;;;;4.40;2.10;;;;;;;5.19;84.57;101736.25;5026149;28;20068;-79
2021/11/24 07:29:33;;;;;;;4.32;2.30;;;;;;;5.23;84.12;101724.38;5021932;28;20068;-79
2021/11/24 07:32:00;;;;;;;4.65;2.22;;;;;;;5.25;84.16;101724.91;5018200;28;20038;-79
2021/11/24 07:34:27;;;;;;;3.35;2.53;;;;;;;5.30;84.87;101721.31;5013660;28;20564;-80
2021/11/24 07:36:55;;;;;;;10.55;2.67;;;;;;;5.35;84.77;101713.84;5025453;28;20033;-79
2021/11/24 07:39:22;;;;;;;6.45;2.22;;;;;;;5.39;84.95;101708.63;5017408;28;20041;-79
2021/11/24 07:41:49;;;;;;;6.95;2.00;;;;;;;5.40;84.83;101694.59;5019394;28;20033;-79
2021/11/24 07:44:16;;;;;;;4.93;2.10;;;;;;;5.44;84.87;101695.66;5018826;28;20072;-79
2021/11/24 07:46:42;;;;;;;7.78;2.85;;;;;;;5.46;84.84;101696.19;5017096;28;20077;-80
2021/11/24 07:49:09;;;;;;;7.97;3.28;;;;;;;5.49;85.13;101697.53;5022055;28;20038;-79
2021/11/24 07:51:36;;;;;;;6.28;2.90;;;;;;;5.52;85.10;101692.31;5012414;28;20104;-79
2021/11/24 07:54:03;;;;;;;8.50;3.20;;;;;;;5.56;85.05;101683.50;5022410;28;20040;-79
2021/11/24 07:56:30;;;;;;;9.63;3.80;;;;;;;5.57;85.03;101694.16;5020502;28;20029;-79
2021/11/24 07:58:57;;;;;;;7.82;4.15;;;;;;;5.59;85.32;101691.16;5024887;28;20041;-79
2021/11/24 08:01:24;;;;;;;9.02;3.83;;;;;;;5.61;85.47;101695.25;5023555;28;20087;-78
2021/11/24 08:03:51;;;;;;;7.07;3.70;;;;;;;5.63;85.67;101682.03;5023514;28;20116;-79
2021/11/24 08:06:18;;;;;;;6.32;3.40;;;;;;;5.66;85.61;101680.63;5021626;28;20077;-78
2021/11/24 08:08:45;;;;;;;7.85;4.82;;;;;;;5.69;85.69;101677.31;5021949;28;20121;-79
2021/11/24 08:11:11;;;;;;;8.82;6.15;;;;;;;5.72;85.76;101676.75;5015528;28;20042;-79
2021/11/24 08:13:38;;;;;;;8.48;4.47;;;;;;;5.74;85.83;101677.25;5012112;28;20070;-79
2021/11/24 08:16:05;;;;;;;5.55;3.97;;;;;;;5.75;85.70;101673.38;5014294;28;20030;-79
2021/11/24 08:18:32;;;;;;;8.15;4.93;;;;;;;5.77;85.85;101668.44;5017989;28;20050;-79
2021/11/24 08:20:59;;;;;;;11.05;6.72;;;;;;;5.80;85.95;101671.41;5013159;28;20042;-80
2021/11/24 08:23:27;;;;;;;12.68;4.40;;;;;;;5.82;85.91;101662.88;5010791;28;20041;-79
2021/11/24 08:25:56;;;;;;;5.55;3.65;;;;;;;5.83;86.04;101665.34;5012627;28;20519;-79
2021/11/24 08:28:23;;;;;;;5.30;3.55;;;;;;;5.87;86.14;101662.88;5005828;28;20037;-79
2021/11/24 08:30:50;;;;;;;5.20;3.38;;;;;;;5.88;86.16;101650.75;5016733;28;20128;-82
2021/11/24 08:33:18;;;;;;;7.25;3.17;;;;;;;5.91;85.88;101644.66;5012723;28;20762;-83
2021/11/24 08:35:45;;;;;;;5.50;4.38;;;;;;;5.93;86.22;101653.47;5000706;28;20049;-82
2021/11/24 08:38:11;;;;;;;5.50;3.20;;;;;;;5.93;86.02;101643.25;5018096;28;20145;-82
2021/11/24 08:40:39;;;;;;;5.63;2.85;;;;;;;5.97;86.08;101654.50;5015052;28;20046;-83
2021/11/24 08:43:06;;;;;;;8.80;4.38;;;;;;;5.99;86.05;101641.28;5005311;28;20030;-81
2021/11/24 08:45:34;;;;;;;9.13;4.20;;;;;;;6.00;86.45;101634.69;5017348;28;20125;-86
2021/11/24 08:48:05;;;;;;;6.25;4.45;;;;;;;6.04;86.35;101633.78;5021352;28;20049;-80
2021/11/24 08:50:33;;;;;;;6.82;3.88;;;;;;;6.09;86.52;101624.66;5016994;28;20551;-82
2021/11/24 08:53:01;;;;;;;7.53;3.83;;;;;;;6.12;86.17;101624.06;5017671;28;20034;-79
2021/11/24 08:55:28;;;;;;;13.50;4.85;;;;;;;6.15;86.55;101612.50;5009770;28;20040;-79
2021/11/24 08:57:57;;;;;;;11.80;3.50;;;;;;;6.18;86.55;101611.91;5017678;28;20045;-79
2021/11/24 09:00:25;;;;;;;7.15;4.10;;;;;;;6.20;86.49;101598.69;5022782;28;20033;-79
2021/11/24 09:02:57;;;;;;;13.55;7.53;;;;;;;6.24;86.63;101609.91;5023373;28;20045;-79
2021/11/24 09:05:24;;;;;;;13.38;5.97;;;;;;;6.28;86.28;101610.94;5021906;28;20081;-79
2021/11/24 09:07:52;;;;;;;7.75;3.92;;;;;;;6.31;86.68;101599.34;5025547;28;20049;-80
2021/11/24 09:10:20;;;;;;;8.27;3.75;;;;;;;6.33;86.65;101600.69;5017376;28;20046;-79
2021/11/24 09:12:47;;;;;;;13.57;4.40;;;;;;;6.37;86.57;101593.50;5023368;28;20048;-80
2021/11/24 09:15:14;;;;;;;9.48;4.55;;;;;;;6.39;86.38;101590.44;5023143;28;20071;-79
2021/11/24 09:18:02;;;;;;;7.65;4.63;;;;;;;6.41;86.29;101586.28;5021917;28;20040;-79
2021/11/24 09:20:33;;;;;;;9.93;4.53;;;;;;;6.43;86.47;101581.31;5020169;28;20482;-79
2021/11/24 09:23:03;;;;;;;9.23;4.13;;;;;;;6.45;86.72;101573.59;5022174;28;20048;-79
2021/11/24 09:25:38;;;;;;;9.75;5.00;;;;;;;6.46;86.80;101575.19;5017524;28;20041;-79
2021/11/24 09:28:10;;;;;;;10.85;4.00;;;;;;;6.49;87.06;101579.28;5012360;28;20041;-78
2021/11/24 09:30:39;;;;;;;13.23;5.35;;;;;;;6.48;87.08;101573.00;5013460;28;20038;-79
2021/11/24 09:33:06;;;;;;;9.60;4.18;;;;;;;6.49;87.20;101580.13;5012921;28;20050;-79
2021/11/24 09:35:33;;;;;;;9.40;4.80;;;;;;;6.49;87.02;101574.63;5024155;28;20061;-78
2021/11/24 09:38:01;;;;;;;10.35;4.18;;;;;;;6.49;87.46;101580.13;5019027;28;20049;-81
2021/11/24 09:40:29;;;;;;;9.63;5.18;;;;;;;6.50;87.17;101576.25;5016017;28;20042;-80
2021/11/24 09:43:06;;;;;;;10.50;5.55;;;;;;;6.48;87.40;101573.00;5016726;28;20084;-79
2021/11/24 09:45:35;;;;;;;13.65;5.72;;;;;;;6.47;88.01;101584.28;5030296;28;20058;-79
2021/11/24 09:48:03;;;;;;;8.85;5.80;;;;;;;6.44;88.31;101585.69;5018123;28;20041;-78
2021/11/24 09:50:32;;;;;;;9.63;5.28;;;;;;;6.41;88.09;101591.78;5033608;28;20458;-78
2021/11/24 09:53:00;;;;;;;8.07;4.78;;;;;;;6.39;88.25;101596.78;5016423;28;20045;-78
2021/11/24 09:55:30;;;;;;;8.02;5.55;;;;;;;6.33;88.87;101589.69;5016016;28;20116;-78
2021/11/24 09:57:57;;;;;;;8.73;5.38;;;;;;;6.28;88.79;101576.03;5026463;28;20100;-78
2021/11/24 10:00:28;;;;;;;8.10;5.97;;;;;;;6.23;88.81;101578.84;5024760;28;20084;-79
2021/11/24 10:02:59;;;;;;;8.45;5.57;;;;;;;6.20;89.23;101571.19;5012044;28;20052;-78
2021/11/24 10:05:28;;;;;;;8.48;5.95;;;;;;;6.21;88.59;101570.06;5020340;28;20042;-79
2021/11/24 10:07:56;;;;;;;13.25;6.80;;;;;;;6.21;88.45;101570.06;5008870;28;20045;-78
2021/11/24 10:10:24;;;;;;;9.57;6.45;;;;;;;6.20;88.92;101581.34;5020157;28;20477;-78
2021/11/24 10:12:51;;;;;;;9.70;6.22;;;;;;;6.20;88.82;101573.94;5013605;28;20060;-79
2021/11/24 10:15:41;;;;;;;10.63;6.85;;;;;;;6.19;89.59;101574.25;5018478;28;20045;-79
2021/11/24 10:18:23;;;;;;;12.95;7.25;;;;;;;6.21;88.78;101578.31;5014464;28;20122;-79
2021/11/24 10:21:10;;;;;;;10.05;6.78;;;;;;;6.21;89.38;101583.81;5021847;28;20070;-78
2021/11/24 10:23:39;;;;;;;10.90;6.60;;;;;;;6.26;89.22;101574.69;5020438;28;20033;-79
2021/11/24 10:26:12;;;;;;;10.80;6.70;;;;;;;6.32;89.15;101574.31;5026200;28;20037;-78
2021/11/24 10:28:39;;;;;;;11.43;7.22;;;;;;;6.35;89.33;101565.50;5019335;28;20117;-80
2021/11/24 10:31:26;;;;;;;11.32;7.65;;;;;;;6.38;89.68;101555.81;5017558;28;20385;-78
2021/11/24 10:33:54;;;;;;;14.38;7.93;;;;;;;6.35;89.88;101557.25;5019201;28;20045;-78
2021/11/24 10:36:21;;;;;;;12.40;7.03;;;;;;;6.34;89.78;101561.09;5021436;28;20136;-79
2021/11/24 10:38:51;;;;;;;12.90;7.38;;;;;;;6.34;89.68;101572.09;5019949;28;20103;-79
2021/11/24 10:41:45;;;;;;;13.82;7.57;;;;;;;6.35;89.72;101573.75;5023089;28;20057;-79
2021/11/24 10:44:30;;;;;;;11.55;7.90;;;;;;;6.39;89.71;101561.00;5020696;28;20160;-79
2021/11/24 10:46:59;;;;;;;13.35;7.97;;;;;;;6.44;89.63;101555.44;5015062;28;20069;-79
2021/11/24 10:49:36;;;;;;;12.07;7.32;;;;;;;6.50;89.77;101554.25;5022602;28;20099;-79
2021/11/24 10:52:24;;;;;;;13.27;8.05;;;;;;;6.53;89.89;101561.91;5018871;28;20073;-79
2021/11/24 10:55:13;;;;;;;14.95;9.85;;;;;;;6.55;89.71;101551.41;5018211;28;20456;-79
2021/11/24 10:57:59;;;;;;;13.57;8.30;;;;;;;6.60;89.63;101547.75;5019332;28;20037;-79
2021/11/24 11:00:40;;;;;;;14.88;8.65;;;;;;;6.65;89.81;101539.44;5019062;28;20081;-79
2021/11/24 11:03:38;;;;;;;16.02;9.13;;;;;;;6.69;89.65;101537.72;5015632;28;20041;-86
2021/11/24 11:06:06;;;;;;;13.35;9.05;;;;;;;6.75;89.68;101526.31;5021384;28;20111;-85
2021/11/24 11:08:33;;;;;;;10.88;6.95;;;;;;;6.79;89.76;101531.22;5021928;28;20038;-79
2021/11/24 11:11:27;;;;;;;10.63;7.65;;;;;;;6.84;89.93;101534.72;5026125;28;20029;-80
2021/11/24 11:14:19;;;;;;;11.65;7.25;;;;;;;6.92;89.96;101533.22;5018416;28;20042;-79
2021/11/24 11:16:52;;;;;;;;;;;;;;;6.97;90.09;101530.34;5006675;28;20062;-78
2021/11/24 11:19:43;;;;;;;7.60;6.03;;;;;;;7.03;89.82;101534.66;5019145;28;20022;-79
2021/11/24 11:22:14;;;;;;;8.27;5.15;;;;;;;7.07;89.96;101527.44;5011528;28;20038;-79
2021/11/24 11:24:42;;;;;;;10.50;5.87;;;;;;;7.12;89.71;101527.34;5013613;28;20068;-79
2021/11/24 11:27:09;;;;;;;6.78;4.07;;;;;;;7.16;89.83;101517.34;5020971;28;20037;-79
2021/11/24 11:29:40;;;;;;;9.27;5.18;;;;;;;7.16;89.81;101520.09;5021772;28;20072;-79
2021/11/24 11:32:08;;;;;;;7.00;4.18;;;;;;;7.13;89.50;101512.44;5011675;28;20761;-79
2021/11/24 11:34:39;;;;;;;10.77;4.25;;;;;;;7.11;89.37;101509.19;5019621;28;20034;-79
2021/11/24 11:37:06;;;;;;;7.38;4.15;;;;;;;7.14;89.72;101519.59;5019815;28;20481;-79
2021/11/24 11:39:34;;;;;;;5.78;3.60;;;;;;;7.14;89.47;101519.59;5020891;28;20057;-79
2021/11/24 11:42:09;;;;;;;8.68;4.25;;;;;;;7.11;88.75;101517.44;5022844;28;20041;-78
2021/11/24 11:45:10;;;;;;;8.00;3.70;;;;;;;7.10;89.19;101513.06;5007784;28;20565;-79
2021/11/24 11:47:44;;;;;;;10.32;4.80;;;;;;;7.09;89.08;101511.44;5015916;28;20044;-80
2021/11/24 11:50:14;;;;;;;9.32;4.57;;;;;;;7.10;88.93;101513.88;5016802;28;20124;-79